sensor_id;sensor_type;location;lat;lon;timestamp;temperature;humidity
69677;DHT22;56914;51.058;9.326;2023-03-23T00:00:14;18.00;46.50
69677;DHT22;56914;51.058;9.326;2023-03-23T00:01:19;18.00;46.30
69677;DHT22;56914;51.058;9.326;2023-03-23T00:02:24;18.10;46.00
69677;DHT22;56914;51.058;9.326;2023-03-23T00:03:27;18.00;46.00
69677;DHT22;56914;51.058;9.326;2023-03-23T00:04:29;18.00;45.90
69677;DHT22;56914;51.058;9.326;2023-03-23T00:05:31;18.00;45.90
69677;DHT22;56914;51.058;9.326;2023-03-23T00:06:32;18.00;46.00
69677;DHT22;56914;51.058;9.326;2023-03-23T00:07:35;18.00;46.10
69677;DHT22;56914;51.058;9.326;2023-03-23T00:08:38;18.00;46.10
69677;DHT22;56914;51.058;9.326;2023-03-23T00:09:45;18.10;46.00
69677;DHT22;56914;51.058;9.326;2023-03-23T00:10:48;18.10;46.00
69677;DHT22;56914;51.058;9.326;2023-03-23T00:11:53;18.10;46.30
69677;DHT22;56914;51.058;9.326;2023-03-23T00:12:57;18.10;47.00
69677;DHT22;56914;51.058;9.326;2023-03-23T00:14:02;18.10;46.20
69677;DHT22;56914;51.058;9.326;2023-03-23T00:15:06;18.10;47.10
69677;DHT22;56914;51.058;9.326;2023-03-23T00:16:14;18.10;46.30
69677;DHT22;56914;51.058;9.326;2023-03-23T00:17:18;18.10;46.10
69677;DHT22;56914;51.058;9.326;2023-03-23T00:18:21;18.10;46.20
69677;DHT22;56914;51.058;9.326;2023-03-23T00:19:22;18.10;46.40
69677;DHT22;56914;51.058;9.326;2023-03-23T00:20:24;18.00;46.30
69677;DHT22;56914;51.058;9.326;2023-03-23T00:21:26;18.10;46.80
69677;DHT22;56914;51.058;9.326;2023-03-23T00:22:33;18.10;46.90
69677;DHT22;56914;51.058;9.326;2023-03-23T00:23:39;18.10;46.80
69677;DHT22;56914;51.058;9.326;2023-03-23T00:24:41;18.10;46.80
69677;DHT22;56914;51.058;9.326;2023-03-23T00:25:45;18.10;46.60
69677;DHT22;56914;51.058;9.326;2023-03-23T00:26:48;18.00;47.30
69677;DHT22;56914;51.058;9.326;2023-03-23T00:27:52;18.00;46.70
69677;DHT22;56914;51.058;9.326;2023-03-23T00:28:54;18.00;46.60
69677;DHT22;56914;51.058;9.326;2023-03-23T00:29:55;18.10;46.80
69677;DHT22;56914;51.058;9.326;2023-03-23T00:30:59;18.10;46.50
69677;DHT22;56914;51.058;9.326;2023-03-23T00:32:02;18.10;46.70
69677;DHT22;56914;51.058;9.326;2023-03-23T00:33:05;18.10;46.50
69677;DHT22;56914;51.058;9.326;2023-03-23T00:34:06;18.10;46.90
69677;DHT22;56914;51.058;9.326;2023-03-23T00:35:08;18.10;46.80
69677;DHT22;56914;51.058;9.326;2023-03-23T00:36:11;18.00;47.10
69677;DHT22;56914;51.058;9.326;2023-03-23T00:37:14;18.00;47.30
69677;DHT22;56914;51.058;9.326;2023-03-23T00:38:17;18.00;47.30
69677;DHT22;56914;51.058;9.326;2023-03-23T00:39:19;18.00;47.50
69677;DHT22;56914;51.058;9.326;2023-03-23T00:40:21;18.10;47.60
69677;DHT22;56914;51.058;9.326;2023-03-23T00:41:23;18.00;48.50
69677;DHT22;56914;51.058;9.326;2023-03-23T00:42:27;18.00;47.90
69677;DHT22;56914;51.058;9.326;2023-03-23T00:43:30;17.90;47.20
69677;DHT22;56914;51.058;9.326;2023-03-23T00:44:33;18.00;47.70
69677;DHT22;56914;51.058;9.326;2023-03-23T00:45:36;18.00;47.70
69677;DHT22;56914;51.058;9.326;2023-03-23T00:46:37;17.90;47.50
69677;DHT22;56914;51.058;9.326;2023-03-23T00:47:46;17.80;47.70
69677;DHT22;56914;51.058;9.326;2023-03-23T00:48:51;17.90;48.00
69677;DHT22;56914;51.058;9.326;2023-03-23T00:49:54;17.90;48.30
69677;DHT22;56914;51.058;9.326;2023-03-23T00:50:56;17.90;48.60
69677;DHT22;56914;51.058;9.326;2023-03-23T00:51:58;17.90;48.80
69677;DHT22;56914;51.058;9.326;2023-03-23T00:53:00;17.90;48.50
69677;DHT22;56914;51.058;9.326;2023-03-23T00:54:02;17.80;48.50
69677;DHT22;56914;51.058;9.326;2023-03-23T00:55:03;17.80;48.60
69677;DHT22;56914;51.058;9.326;2023-03-23T00:56:07;17.80;48.60
69677;DHT22;56914;51.058;9.326;2023-03-23T00:57:08;17.80;48.80
69677;DHT22;56914;51.058;9.326;2023-03-23T00:58:11;17.80;48.90
69677;DHT22;56914;51.058;9.326;2023-03-23T00:59:13;17.80;49.00
69677;DHT22;56914;51.058;9.326;2023-03-23T01:00:16;17.80;49.10
69677;DHT22;56914;51.058;9.326;2023-03-23T01:01:17;17.80;49.10
69677;DHT22;56914;51.058;9.326;2023-03-23T01:02:19;17.70;49.20
69677;DHT22;56914;51.058;9.326;2023-03-23T01:03:22;17.80;49.50
69677;DHT22;56914;51.058;9.326;2023-03-23T01:04:26;17.70;49.60
69677;DHT22;56914;51.058;9.326;2023-03-23T01:05:29;17.70;50.40
69677;DHT22;56914;51.058;9.326;2023-03-23T01:06:35;17.70;49.80
69677;DHT22;56914;51.058;9.326;2023-03-23T01:07:39;17.70;51.00
69677;DHT22;56914;51.058;9.326;2023-03-23T01:08:42;17.70;50.90
69677;DHT22;56914;51.058;9.326;2023-03-23T01:09:46;17.60;51.10
69677;DHT22;56914;51.058;9.326;2023-03-23T01:10:49;17.60;51.10
69677;DHT22;56914;51.058;9.326;2023-03-23T01:11:53;17.50;51.70
69677;DHT22;56914;51.058;9.326;2023-03-23T01:12:57;17.50;51.80
69677;DHT22;56914;51.058;9.326;2023-03-23T01:13:58;17.50;52.50
69677;DHT22;56914;51.058;9.326;2023-03-23T01:15:00;17.40;53.40
69677;DHT22;56914;51.058;9.326;2023-03-23T01:16:02;17.40;52.50
69677;DHT22;56914;51.058;9.326;2023-03-23T01:17:04;17.40;52.80
69677;DHT22;56914;51.058;9.326;2023-03-23T01:18:05;17.40;52.90
69677;DHT22;56914;51.058;9.326;2023-03-23T01:19:09;17.30;53.00
69677;DHT22;56914;51.058;9.326;2023-03-23T01:20:11;17.20;53.00
69677;DHT22;56914;51.058;9.326;2023-03-23T01:21:16;17.20;53.40
69677;DHT22;56914;51.058;9.326;2023-03-23T01:22:18;17.20;53.20
69677;DHT22;56914;51.058;9.326;2023-03-23T01:23:20;17.20;53.10
69677;DHT22;56914;51.058;9.326;2023-03-23T01:24:21;17.10;53.30
69677;DHT22;56914;51.058;9.326;2023-03-23T01:25:23;17.10;53.50
69677;DHT22;56914;51.058;9.326;2023-03-23T01:26:25;17.10;53.50
69677;DHT22;56914;51.058;9.326;2023-03-23T01:27:28;17.10;53.70
69677;DHT22;56914;51.058;9.326;2023-03-23T01:28:29;17.00;54.00
69677;DHT22;56914;51.058;9.326;2023-03-23T01:29:31;17.00;53.90
69677;DHT22;56914;51.058;9.326;2023-03-23T01:30:32;17.00;54.30
69677;DHT22;56914;51.058;9.326;2023-03-23T01:31:35;16.90;54.30
69677;DHT22;56914;51.058;9.326;2023-03-23T01:32:37;16.90;54.60
69677;DHT22;56914;51.058;9.326;2023-03-23T01:33:40;16.90;54.90
69677;DHT22;56914;51.058;9.326;2023-03-23T01:34:42;16.90;55.20
69677;DHT22;56914;51.058;9.326;2023-03-23T01:35:45;16.90;55.00
69677;DHT22;56914;51.058;9.326;2023-03-23T01:36:46;16.80;55.20
69677;DHT22;56914;51.058;9.326;2023-03-23T01:37:48;16.80;55.70
69677;DHT22;56914;51.058;9.326;2023-03-23T01:38:50;16.70;54.80
69677;DHT22;56914;51.058;9.326;2023-03-23T01:39:52;16.70;55.00
69677;DHT22;56914;51.058;9.326;2023-03-23T01:40:54;16.70;55.20
69677;DHT22;56914;51.058;9.326;2023-03-23T01:41:57;16.70;55.40
69677;DHT22;56914;51.058;9.326;2023-03-23T01:42:58;16.70;55.60
69677;DHT22;56914;51.058;9.326;2023-03-23T01:44:02;16.70;55.40
69677;DHT22;56914;51.058;9.326;2023-03-23T01:45:27;16.70;55.60
69677;DHT22;56914;51.058;9.326;2023-03-23T01:46:31;16.60;55.50
69677;DHT22;56914;51.058;9.326;2023-03-23T01:47:33;16.70;55.60
69677;DHT22;56914;51.058;9.326;2023-03-23T01:48:37;16.60;55.50
69677;DHT22;56914;51.058;9.326;2023-03-23T01:49:45;16.70;55.80
69677;DHT22;56914;51.058;9.326;2023-03-23T01:50:54;16.70;55.90
69677;DHT22;56914;51.058;9.326;2023-03-23T01:52:01;16.60;55.60
69677;DHT22;56914;51.058;9.326;2023-03-23T01:53:07;16.70;56.50
69677;DHT22;56914;51.058;9.326;2023-03-23T01:54:13;16.60;56.80
69677;DHT22;56914;51.058;9.326;2023-03-23T01:55:21;16.60;55.80
69677;DHT22;56914;51.058;9.326;2023-03-23T01:56:29;16.70;56.00
69677;DHT22;56914;51.058;9.326;2023-03-23T01:57:34;16.70;55.70
69677;DHT22;56914;51.058;9.326;2023-03-23T01:58:38;16.60;55.90
69677;DHT22;56914;51.058;9.326;2023-03-23T01:59:43;16.60;56.20
69677;DHT22;56914;51.058;9.326;2023-03-23T02:00:46;16.60;56.30
69677;DHT22;56914;51.058;9.326;2023-03-23T02:01:48;16.60;56.20
69677;DHT22;56914;51.058;9.326;2023-03-23T02:02:54;16.60;56.20
69677;DHT22;56914;51.058;9.326;2023-03-23T02:03:57;16.60;56.30
69677;DHT22;56914;51.058;9.326;2023-03-23T02:05:06;16.60;56.50
69677;DHT22;56914;51.058;9.326;2023-03-23T02:06:10;16.60;56.50
69677;DHT22;56914;51.058;9.326;2023-03-23T02:07:14;16.60;56.60
69677;DHT22;56914;51.058;9.326;2023-03-23T02:08:18;16.60;56.70
69677;DHT22;56914;51.058;9.326;2023-03-23T02:09:20;16.60;57.10
69677;DHT22;56914;51.058;9.326;2023-03-23T02:10:22;16.60;57.20
69677;DHT22;56914;51.058;9.326;2023-03-23T02:11:23;16.60;57.20
69677;DHT22;56914;51.058;9.326;2023-03-23T02:12:25;16.60;57.30
69677;DHT22;56914;51.058;9.326;2023-03-23T02:13:27;16.60;57.40
69677;DHT22;56914;51.058;9.326;2023-03-23T02:14:30;16.60;57.20
69677;DHT22;56914;51.058;9.326;2023-03-23T02:15:45;16.60;57.40
69677;DHT22;56914;51.058;9.326;2023-03-23T02:16:57;16.50;57.50
69677;DHT22;56914;51.058;9.326;2023-03-23T02:18:07;16.50;57.50
69677;DHT22;56914;51.058;9.326;2023-03-23T02:19:31;16.50;57.60
69677;DHT22;56914;51.058;9.326;2023-03-23T02:21:17;16.50;57.70
69677;DHT22;56914;51.058;9.326;2023-03-23T02:23:01;16.50;57.70
69677;DHT22;56914;51.058;9.326;2023-03-23T02:24:30;16.60;58.20
69677;DHT22;56914;51.058;9.326;2023-03-23T02:25:58;16.50;58.10
69677;DHT22;56914;51.058;9.326;2023-03-23T02:27:06;16.50;58.30
69677;DHT22;56914;51.058;9.326;2023-03-23T02:28:30;16.50;58.30
69677;DHT22;56914;51.058;9.326;2023-03-23T02:29:50;16.50;58.30
69677;DHT22;56914;51.058;9.326;2023-03-23T02:31:14;16.50;58.60
69677;DHT22;56914;51.058;9.326;2023-03-23T02:32:41;16.40;58.80
69677;DHT22;56914;51.058;9.326;2023-03-23T02:33:56;16.40;58.80
69677;DHT22;56914;51.058;9.326;2023-03-23T02:35:05;16.40;58.90
69677;DHT22;56914;51.058;9.326;2023-03-23T02:36:16;16.40;59.00
69677;DHT22;56914;51.058;9.326;2023-03-23T02:37:24;16.40;58.90
69677;DHT22;56914;51.058;9.326;2023-03-23T02:38:34;16.40;59.00
69677;DHT22;56914;51.058;9.326;2023-03-23T02:39:43;16.30;59.00
69677;DHT22;56914;51.058;9.326;2023-03-23T02:40:48;16.30;58.90
69677;DHT22;56914;51.058;9.326;2023-03-23T02:41:54;16.30;59.00
69677;DHT22;56914;51.058;9.326;2023-03-23T02:42:58;16.30;59.00
69677;DHT22;56914;51.058;9.326;2023-03-23T02:44:03;16.30;59.10
69677;DHT22;56914;51.058;9.326;2023-03-23T02:45:10;16.30;59.10
69677;DHT22;56914;51.058;9.326;2023-03-23T02:46:15;16.30;59.30
69677;DHT22;56914;51.058;9.326;2023-03-23T02:47:21;16.30;59.40
69677;DHT22;56914;51.058;9.326;2023-03-23T02:48:29;16.20;59.50
69677;DHT22;56914;51.058;9.326;2023-03-23T02:49:35;16.20;59.60
69677;DHT22;56914;51.058;9.326;2023-03-23T02:50:42;16.10;59.70
69677;DHT22;56914;51.058;9.326;2023-03-23T02:51:47;16.10;59.80
69677;DHT22;56914;51.058;9.326;2023-03-23T02:52:50;16.10;59.70
69677;DHT22;56914;51.058;9.326;2023-03-23T02:53:56;16.20;59.80
69677;DHT22;56914;51.058;9.326;2023-03-23T02:55:00;16.20;59.80
69677;DHT22;56914;51.058;9.326;2023-03-23T02:56:06;16.20;60.00
69677;DHT22;56914;51.058;9.326;2023-03-23T02:57:10;16.20;59.80
69677;DHT22;56914;51.058;9.326;2023-03-23T02:58:12;16.20;59.80
69677;DHT22;56914;51.058;9.326;2023-03-23T02:59:14;16.20;59.40
69677;DHT22;56914;51.058;9.326;2023-03-23T03:00:16;16.20;59.40
69677;DHT22;56914;51.058;9.326;2023-03-23T03:01:51;16.20;59.50
69677;DHT22;56914;51.058;9.326;2023-03-23T03:02:55;16.20;59.40
69677;DHT22;56914;51.058;9.326;2023-03-23T03:04:01;16.20;59.40
69677;DHT22;56914;51.058;9.326;2023-03-23T03:05:14;16.20;59.40
69677;DHT22;56914;51.058;9.326;2023-03-23T03:06:26;16.20;59.70
69677;DHT22;56914;51.058;9.326;2023-03-23T03:09:05;16.20;59.80
69677;DHT22;56914;51.058;9.326;2023-03-23T03:10:13;16.10;60.00
69677;DHT22;56914;51.058;9.326;2023-03-23T03:11:20;16.10;59.90
69677;DHT22;56914;51.058;9.326;2023-03-23T03:12:32;16.10;60.30
69677;DHT22;56914;51.058;9.326;2023-03-23T03:13:46;16.10;60.20
69677;DHT22;56914;51.058;9.326;2023-03-23T03:14:56;16.10;60.30
69677;DHT22;56914;51.058;9.326;2023-03-23T03:16:03;16.10;60.50
69677;DHT22;56914;51.058;9.326;2023-03-23T03:17:13;16.10;60.60
69677;DHT22;56914;51.058;9.326;2023-03-23T03:18:24;16.00;60.60
69677;DHT22;56914;51.058;9.326;2023-03-23T03:19:30;16.00;60.80
69677;DHT22;56914;51.058;9.326;2023-03-23T03:20:40;16.00;60.80
69677;DHT22;56914;51.058;9.326;2023-03-23T03:21:47;16.00;61.10
69677;DHT22;56914;51.058;9.326;2023-03-23T03:22:50;16.00;61.30
69677;DHT22;56914;51.058;9.326;2023-03-23T03:23:56;16.00;61.30
69677;DHT22;56914;51.058;9.326;2023-03-23T03:25:00;16.00;61.50
69677;DHT22;56914;51.058;9.326;2023-03-23T03:26:05;16.00;61.50
69677;DHT22;56914;51.058;9.326;2023-03-23T03:27:11;16.00;61.50
69677;DHT22;56914;51.058;9.326;2023-03-23T03:28:19;16.00;61.80
69677;DHT22;56914;51.058;9.326;2023-03-23T03:29:26;16.00;62.10
69677;DHT22;56914;51.058;9.326;2023-03-23T03:30:36;16.00;62.00
69677;DHT22;56914;51.058;9.326;2023-03-23T03:31:42;15.90;62.60
69677;DHT22;56914;51.058;9.326;2023-03-23T03:32:49;15.90;62.80
69677;DHT22;56914;51.058;9.326;2023-03-23T03:33:54;15.80;62.80
69677;DHT22;56914;51.058;9.326;2023-03-23T03:34:55;15.80;63.00
69677;DHT22;56914;51.058;9.326;2023-03-23T03:36:01;15.80;63.20
69677;DHT22;56914;51.058;9.326;2023-03-23T03:37:04;15.80;63.50
69677;DHT22;56914;51.058;9.326;2023-03-23T03:38:08;15.70;63.60
69677;DHT22;56914;51.058;9.326;2023-03-23T03:39:09;15.70;63.80
69677;DHT22;56914;51.058;9.326;2023-03-23T03:40:15;15.70;63.90
69677;DHT22;56914;51.058;9.326;2023-03-23T03:41:18;15.60;64.00
69677;DHT22;56914;51.058;9.326;2023-03-23T03:42:20;15.60;64.20
69677;DHT22;56914;51.058;9.326;2023-03-23T03:43:21;15.60;64.30
69677;DHT22;56914;51.058;9.326;2023-03-23T03:44:24;15.60;64.30
69677;DHT22;56914;51.058;9.326;2023-03-23T03:45:25;15.60;64.40
69677;DHT22;56914;51.058;9.326;2023-03-23T03:46:27;15.60;64.50
69677;DHT22;56914;51.058;9.326;2023-03-23T03:47:30;15.60;64.50
69677;DHT22;56914;51.058;9.326;2023-03-23T03:48:32;15.60;64.60
69677;DHT22;56914;51.058;9.326;2023-03-23T03:49:34;15.60;64.70
69677;DHT22;56914;51.058;9.326;2023-03-23T03:50:36;15.60;65.50
69677;DHT22;56914;51.058;9.326;2023-03-23T03:51:39;15.60;65.00
69677;DHT22;56914;51.058;9.326;2023-03-23T03:52:42;15.60;65.10
69677;DHT22;56914;51.058;9.326;2023-03-23T03:53:43;15.60;64.90
69677;DHT22;56914;51.058;9.326;2023-03-23T03:54:46;15.60;65.10
69677;DHT22;56914;51.058;9.326;2023-03-23T03:55:47;15.50;65.50
69677;DHT22;56914;51.058;9.326;2023-03-23T03:56:50;15.50;65.40
69677;DHT22;56914;51.058;9.326;2023-03-23T03:57:52;15.50;65.50
69677;DHT22;56914;51.058;9.326;2023-03-23T03:58:55;15.50;65.40
69677;DHT22;56914;51.058;9.326;2023-03-23T03:59:56;15.50;65.30
69677;DHT22;56914;51.058;9.326;2023-03-23T04:01:07;15.50;65.40
69677;DHT22;56914;51.058;9.326;2023-03-23T04:02:10;15.50;65.40
69677;DHT22;56914;51.058;9.326;2023-03-23T04:03:14;15.50;65.40
69677;DHT22;56914;51.058;9.326;2023-03-23T04:04:16;15.50;65.60
69677;DHT22;56914;51.058;9.326;2023-03-23T04:05:18;15.50;65.60
69677;DHT22;56914;51.058;9.326;2023-03-23T04:06:21;15.50;65.80
69677;DHT22;56914;51.058;9.326;2023-03-23T04:07:23;15.50;65.60
69677;DHT22;56914;51.058;9.326;2023-03-23T04:08:26;15.50;65.70
69677;DHT22;56914;51.058;9.326;2023-03-23T04:09:28;15.50;65.60
69677;DHT22;56914;51.058;9.326;2023-03-23T04:10:32;15.50;65.70
69677;DHT22;56914;51.058;9.326;2023-03-23T04:11:34;15.50;65.60
69677;DHT22;56914;51.058;9.326;2023-03-23T04:12:37;15.50;65.70
69677;DHT22;56914;51.058;9.326;2023-03-23T04:13:38;15.50;65.70
69677;DHT22;56914;51.058;9.326;2023-03-23T04:14:40;15.50;65.80
69677;DHT22;56914;51.058;9.326;2023-03-23T04:15:43;15.50;65.80
69677;DHT22;56914;51.058;9.326;2023-03-23T04:16:45;15.50;65.80
69677;DHT22;56914;51.058;9.326;2023-03-23T04:17:47;15.50;65.70
69677;DHT22;56914;51.058;9.326;2023-03-23T04:18:49;15.50;65.90
69677;DHT22;56914;51.058;9.326;2023-03-23T04:19:50;15.50;65.90
69677;DHT22;56914;51.058;9.326;2023-03-23T04:20:52;15.50;65.90
69677;DHT22;56914;51.058;9.326;2023-03-23T04:21:53;15.50;65.90
69677;DHT22;56914;51.058;9.326;2023-03-23T04:22:57;15.50;66.00
69677;DHT22;56914;51.058;9.326;2023-03-23T04:23:58;15.50;65.90
69677;DHT22;56914;51.058;9.326;2023-03-23T04:25:01;15.50;66.00
69677;DHT22;56914;51.058;9.326;2023-03-23T04:26:06;15.50;66.10
69677;DHT22;56914;51.058;9.326;2023-03-23T04:27:08;15.50;66.20
69677;DHT22;56914;51.058;9.326;2023-03-23T04:28:09;15.60;66.60
69677;DHT22;56914;51.058;9.326;2023-03-23T04:29:11;15.60;66.20
69677;DHT22;56914;51.058;9.326;2023-03-23T04:30:14;15.60;66.00
69677;DHT22;56914;51.058;9.326;2023-03-23T04:31:16;15.60;65.90
69677;DHT22;56914;51.058;9.326;2023-03-23T04:32:17;15.60;65.90
69677;DHT22;56914;51.058;9.326;2023-03-23T04:33:20;15.60;66.00
69677;DHT22;56914;51.058;9.326;2023-03-23T04:34:22;15.50;66.10
69677;DHT22;56914;51.058;9.326;2023-03-23T04:35:25;15.50;66.20
69677;DHT22;56914;51.058;9.326;2023-03-23T04:36:27;15.50;66.20
69677;DHT22;56914;51.058;9.326;2023-03-23T04:37:30;15.50;66.20
69677;DHT22;56914;51.058;9.326;2023-03-23T04:38:34;15.50;66.20
69677;DHT22;56914;51.058;9.326;2023-03-23T04:39:36;15.50;66.10
69677;DHT22;56914;51.058;9.326;2023-03-23T04:40:44;15.50;66.10
69677;DHT22;56914;51.058;9.326;2023-03-23T04:41:46;15.50;66.30
69677;DHT22;56914;51.058;9.326;2023-03-23T04:42:47;15.40;66.40
69677;DHT22;56914;51.058;9.326;2023-03-23T04:43:51;15.40;66.40
69677;DHT22;56914;51.058;9.326;2023-03-23T04:44:54;15.40;66.50
69677;DHT22;56914;51.058;9.326;2023-03-23T04:45:57;15.30;66.40
69677;DHT22;56914;51.058;9.326;2023-03-23T04:47:00;15.30;66.50
69677;DHT22;56914;51.058;9.326;2023-03-23T04:48:04;15.30;66.60
69677;DHT22;56914;51.058;9.326;2023-03-23T04:49:05;15.30;66.90
69677;DHT22;56914;51.058;9.326;2023-03-23T04:50:10;15.30;66.90
69677;DHT22;56914;51.058;9.326;2023-03-23T04:51:12;15.30;67.10
69677;DHT22;56914;51.058;9.326;2023-03-23T04:52:14;15.30;67.00
69677;DHT22;56914;51.058;9.326;2023-03-23T04:53:16;15.30;67.00
69677;DHT22;56914;51.058;9.326;2023-03-23T04:54:19;15.30;67.00
69677;DHT22;56914;51.058;9.326;2023-03-23T04:55:20;15.30;66.90
69677;DHT22;56914;51.058;9.326;2023-03-23T04:56:22;15.30;66.80
69677;DHT22;56914;51.058;9.326;2023-03-23T04:57:24;15.20;67.00
69677;DHT22;56914;51.058;9.326;2023-03-23T04:58:28;15.30;67.00
69677;DHT22;56914;51.058;9.326;2023-03-23T04:59:34;15.20;67.10
69677;DHT22;56914;51.058;9.326;2023-03-23T05:00:36;15.20;67.20
69677;DHT22;56914;51.058;9.326;2023-03-23T05:01:38;15.20;67.40
69677;DHT22;56914;51.058;9.326;2023-03-23T05:02:41;15.20;67.30
69677;DHT22;56914;51.058;9.326;2023-03-23T05:03:43;15.20;67.30
69677;DHT22;56914;51.058;9.326;2023-03-23T05:04:44;15.20;67.40
69677;DHT22;56914;51.058;9.326;2023-03-23T05:05:47;15.20;67.50
69677;DHT22;56914;51.058;9.326;2023-03-23T05:06:52;15.10;67.70
69677;DHT22;56914;51.058;9.326;2023-03-23T05:07:54;15.20;67.60
69677;DHT22;56914;51.058;9.326;2023-03-23T05:08:55;15.20;67.70
69677;DHT22;56914;51.058;9.326;2023-03-23T05:09:59;15.10;67.90
69677;DHT22;56914;51.058;9.326;2023-03-23T05:11:00;15.10;67.90
69677;DHT22;56914;51.058;9.326;2023-03-23T05:12:05;15.10;68.10
69677;DHT22;56914;51.058;9.326;2023-03-23T05:13:06;15.00;68.20
69677;DHT22;56914;51.058;9.326;2023-03-23T05:14:08;15.00;68.30
69677;DHT22;56914;51.058;9.326;2023-03-23T05:15:11;15.00;68.40
69677;DHT22;56914;51.058;9.326;2023-03-23T05:16:13;15.00;68.60
69677;DHT22;56914;51.058;9.326;2023-03-23T05:17:15;15.00;68.60
69677;DHT22;56914;51.058;9.326;2023-03-23T05:18:17;15.00;68.40
69677;DHT22;56914;51.058;9.326;2023-03-23T05:19:20;15.00;68.10
69677;DHT22;56914;51.058;9.326;2023-03-23T05:20:22;15.00;68.40
69677;DHT22;56914;51.058;9.326;2023-03-23T05:21:25;15.00;68.40
69677;DHT22;56914;51.058;9.326;2023-03-23T05:22:27;14.90;68.30
69677;DHT22;56914;51.058;9.326;2023-03-23T05:23:32;14.90;68.20
69677;DHT22;56914;51.058;9.326;2023-03-23T05:24:34;14.90;68.30
69677;DHT22;56914;51.058;9.326;2023-03-23T05:25:38;14.90;68.50
69677;DHT22;56914;51.058;9.326;2023-03-23T05:26:41;14.80;68.70
69677;DHT22;56914;51.058;9.326;2023-03-23T05:27:43;14.80;68.70
69677;DHT22;56914;51.058;9.326;2023-03-23T05:28:49;14.80;68.60
69677;DHT22;56914;51.058;9.326;2023-03-23T05:29:53;14.80;68.70
69677;DHT22;56914;51.058;9.326;2023-03-23T05:30:54;14.90;68.60
69677;DHT22;56914;51.058;9.326;2023-03-23T05:31:57;14.90;68.50
69677;DHT22;56914;51.058;9.326;2023-03-23T05:33:00;14.90;68.40
69677;DHT22;56914;51.058;9.326;2023-03-23T05:34:02;14.90;68.40
69677;DHT22;56914;51.058;9.326;2023-03-23T05:35:04;14.90;68.20
69677;DHT22;56914;51.058;9.326;2023-03-23T05:36:07;14.90;68.20
69677;DHT22;56914;51.058;9.326;2023-03-23T05:37:11;14.90;68.30
69677;DHT22;56914;51.058;9.326;2023-03-23T05:38:14;14.90;68.30
69677;DHT22;56914;51.058;9.326;2023-03-23T05:39:15;14.90;68.30
69677;DHT22;56914;51.058;9.326;2023-03-23T05:40:18;14.90;68.50
69677;DHT22;56914;51.058;9.326;2023-03-23T05:41:20;14.80;68.40
69677;DHT22;56914;51.058;9.326;2023-03-23T05:42:23;14.90;68.40
69677;DHT22;56914;51.058;9.326;2023-03-23T05:43:25;14.90;68.20
69677;DHT22;56914;51.058;9.326;2023-03-23T05:44:27;14.90;68.20
69677;DHT22;56914;51.058;9.326;2023-03-23T05:45:28;14.90;68.10
69677;DHT22;56914;51.058;9.326;2023-03-23T05:46:30;14.90;68.20
69677;DHT22;56914;51.058;9.326;2023-03-23T05:47:31;15.00;68.70
69677;DHT22;56914;51.058;9.326;2023-03-23T05:48:34;15.00;68.00
69677;DHT22;56914;51.058;9.326;2023-03-23T05:49:35;15.10;68.00
69677;DHT22;56914;51.058;9.326;2023-03-23T05:50:37;15.10;67.70
69677;DHT22;56914;51.058;9.326;2023-03-23T05:51:39;15.10;67.70
69677;DHT22;56914;51.058;9.326;2023-03-23T05:52:40;15.00;67.90
69677;DHT22;56914;51.058;9.326;2023-03-23T05:53:42;15.00;67.90
69677;DHT22;56914;51.058;9.326;2023-03-23T05:54:43;15.10;68.00
69677;DHT22;56914;51.058;9.326;2023-03-23T05:55:46;15.10;67.90
69677;DHT22;56914;51.058;9.326;2023-03-23T05:56:48;15.10;67.70
69677;DHT22;56914;51.058;9.326;2023-03-23T05:57:50;15.10;67.70
69677;DHT22;56914;51.058;9.326;2023-03-23T05:58:52;15.10;67.70
69677;DHT22;56914;51.058;9.326;2023-03-23T05:59:55;15.20;67.60
69677;DHT22;56914;51.058;9.326;2023-03-23T06:00:58;15.20;67.40
69677;DHT22;56914;51.058;9.326;2023-03-23T06:02:02;15.20;67.50
69677;DHT22;56914;51.058;9.326;2023-03-23T06:03:03;15.20;67.50
69677;DHT22;56914;51.058;9.326;2023-03-23T06:04:06;15.20;67.40
69677;DHT22;56914;51.058;9.326;2023-03-23T06:05:07;15.20;67.40
69677;DHT22;56914;51.058;9.326;2023-03-23T06:06:10;15.20;67.40
69677;DHT22;56914;51.058;9.326;2023-03-23T06:07:12;15.20;67.40
69677;DHT22;56914;51.058;9.326;2023-03-23T06:08:15;15.30;67.40
69677;DHT22;56914;51.058;9.326;2023-03-23T06:09:16;15.30;67.30
69677;DHT22;56914;51.058;9.326;2023-03-23T06:10:19;15.30;67.30
69677;DHT22;56914;51.058;9.326;2023-03-23T06:11:20;15.30;67.20
69677;DHT22;56914;51.058;9.326;2023-03-23T06:12:23;15.40;67.10
69677;DHT22;56914;51.058;9.326;2023-03-23T06:13:25;15.40;67.00
69677;DHT22;56914;51.058;9.326;2023-03-23T06:14:27;15.40;67.00
69677;DHT22;56914;51.058;9.326;2023-03-23T06:15:28;15.40;66.90
69677;DHT22;56914;51.058;9.326;2023-03-23T06:16:32;15.50;66.90
69677;DHT22;56914;51.058;9.326;2023-03-23T06:17:33;15.50;66.80
69677;DHT22;56914;51.058;9.326;2023-03-23T06:18:36;15.50;66.70
69677;DHT22;56914;51.058;9.326;2023-03-23T06:19:38;15.50;66.70
69677;DHT22;56914;51.058;9.326;2023-03-23T06:20:40;15.50;66.80
69677;DHT22;56914;51.058;9.326;2023-03-23T06:21:42;15.50;66.70
69677;DHT22;56914;51.058;9.326;2023-03-23T06:22:45;15.60;66.70
69677;DHT22;56914;51.058;9.326;2023-03-23T06:23:46;15.60;66.60
69677;DHT22;56914;51.058;9.326;2023-03-23T06:24:48;15.60;66.50
69677;DHT22;56914;51.058;9.326;2023-03-23T06:25:52;15.60;66.40
69677;DHT22;56914;51.058;9.326;2023-03-23T06:26:55;15.60;66.40
69677;DHT22;56914;51.058;9.326;2023-03-23T06:27:57;15.70;66.30
69677;DHT22;56914;51.058;9.326;2023-03-23T06:29:00;15.70;66.20
69677;DHT22;56914;51.058;9.326;2023-03-23T06:30:01;15.70;66.10
69677;DHT22;56914;51.058;9.326;2023-03-23T06:31:05;15.70;66.10
69677;DHT22;56914;51.058;9.326;2023-03-23T06:32:07;15.70;66.50
69677;DHT22;56914;51.058;9.326;2023-03-23T06:33:09;15.80;66.00
69677;DHT22;56914;51.058;9.326;2023-03-23T06:34:10;15.80;65.90
69677;DHT22;56914;51.058;9.326;2023-03-23T06:35:13;15.80;65.80
69677;DHT22;56914;51.058;9.326;2023-03-23T06:36:14;15.80;65.80
69677;DHT22;56914;51.058;9.326;2023-03-23T06:37:17;15.80;65.70
69677;DHT22;56914;51.058;9.326;2023-03-23T06:38:18;15.90;65.70
69677;DHT22;56914;51.058;9.326;2023-03-23T06:39:20;15.80;65.60
69677;DHT22;56914;51.058;9.326;2023-03-23T06:40:23;15.90;65.60
69677;DHT22;56914;51.058;9.326;2023-03-23T06:41:25;15.90;65.50
69677;DHT22;56914;51.058;9.326;2023-03-23T06:42:28;16.00;65.60
69677;DHT22;56914;51.058;9.326;2023-03-23T06:43:39;16.00;65.50
69677;DHT22;56914;51.058;9.326;2023-03-23T06:44:40;16.10;65.50
69677;DHT22;56914;51.058;9.326;2023-03-23T06:45:42;16.10;65.40
69677;DHT22;56914;51.058;9.326;2023-03-23T06:46:43;16.10;65.50